Time;durP1;ratioP1;P1;durP2;ratioP2;P2;SDS_P1;SDS_P2;PMS_P1;PMS_P2;Temp;Humidity;BMP_temperature;BMP_pressure;BME280_temperature;BME280_humidity;BME280_pressure;Samples;Min_cycle;Max_cycle;Signal;HPM_P1;HPM_P2
2022/10/23 00:00:54;;;;;;;3.47;1.42;;;;;;;;;;5005057;28;20041;-49
2022/10/23 00:03:20;;;;;;;2.70;1.35;;;;;;;;;;4996971;28;20034;-51
2022/10/23 00:05:45;;;;;;;2.45;1.15;;;;;;;;;;4998176;28;20117;-49
2022/10/23 00:08:11;;;;;;;2.40;1.20;;;;;;;;;;5000928;28;20081;-50
2022/10/23 00:10:40;;;;;;;3.88;1.40;;;;;;;;;;5000468;28;20042;-49
2022/10/23 00:13:05;;;;;;;2.60;1.30;;;;;;;;;;5002480;28;20042;-50
2022/10/23 00:15:34;;;;;;;3.78;1.30;;;;;;;;;;5003964;28;20085;-49
2022/10/23 00:17:59;;;;;;;3.97;1.20;;;;;;;;;;5002467;28;20050;-49
2022/10/23 00:20:24;;;;;;;2.38;1.30;;;;;;;;;;5011526;28;20034;-52
2022/10/23 00:22:50;;;;;;;4.20;1.30;;;;;;;;;;5013294;28;20433;-52
2022/10/23 00:25:15;;;;;;;3.00;1.30;;;;;;;;;;5013342;28;20038;-48
2022/10/23 00:27:41;;;;;;;3.90;1.35;;;;;;;;;;5013425;28;20057;-50
2022/10/23 00:30:07;;;;;;;3.05;1.10;;;;;;;;;;5013244;28;20029;-52
2022/10/23 00:32:32;;;;;;;3.47;1.60;;;;;;;;;;5013811;28;20044;-49
2022/10/23 00:34:58;;;;;;;2.45;1.23;;;;;;;;;;5017349;28;20042;-48
2022/10/23 00:37:23;;;;;;;2.20;1.10;;;;;;;;;;5017355;28;20038;-52
2022/10/23 00:39:49;;;;;;;3.33;1.45;;;;;;;;;;5016933;28;20065;-50
2022/10/23 00:42:19;;;;;;;2.20;1.15;;;;;;;;;;5002792;28;20093;-48
2022/10/23 00:44:44;;;;;;;4.22;1.40;;;;;;;;;;5007873;28;20033;-52
2022/10/23 00:47:11;;;;;;;2.70;1.20;;;;;;;;;;5016874;28;20034;-50
2022/10/23 00:49:36;;;;;;;3.10;1.40;;;;;;;;;;5015774;28;20037;-49
2022/10/23 00:52:06;;;;;;;2.47;1.10;;;;;;;;;;5017092;28;20519;-50
2022/10/23 00:54:35;;;;;;;2.47;1.40;;;;;;;;;;5013434;28;20541;-48
2022/10/23 00:57:02;;;;;;;3.60;1.35;;;;;;;;;;4987478;28;20035;-51
2022/10/23 00:59:28;;;;;;;3.97;1.20;;;;;;;;;;4998256;28;20034;-52
2022/10/23 01:01:53;;;;;;;2.13;1.00;;;;;;;;;;4999619;28;20073;-50
2022/10/23 01:04:19;;;;;;;2.97;1.10;;;;;;;;;;5012063;28;20482;-50
2022/10/23 01:07:13;;;;;;;2.60;1.10;;;;;;;;;;5015386;28;20054;-50
2022/10/23 01:10:02;;;;;;;3.83;1.52;;;;;;;;;;5016776;28;20038;-49
2022/10/23 01:12:47;;;;;;;4.63;1.33;;;;;;;;;;5002708;28;20029;-49
2022/10/23 01:15:21;;;;;;;2.50;1.02;;;;;;;;;;5015421;28;20040;-50
2022/10/23 01:17:50;;;;;;;2.05;1.10;;;;;;;;;;5005453;28;20030;-52
2022/10/23 01:20:24;;;;;;;2.30;1.20;;;;;;;;;;5016423;28;20041;-49
2022/10/23 01:23:03;;;;;;;2.83;1.20;;;;;;;;;;5016420;28;20038;-49
2022/10/23 01:25:58;;;;;;;2.22;1.00;;;;;;;;;;5016627;28;20034;-51
2022/10/23 01:29:02;;;;;;;1.98;0.77;;;;;;;;;;5015337;28;20072;-49
2022/10/23 01:32:01;;;;;;;2.28;1.13;;;;;;;;;;4993385;28;20128;-50
2022/10/23 01:34:47;;;;;;;2.75;1.20;;;;;;;;;;5015044;28;20121;-52
2022/10/23 01:37:14;;;;;;;2.70;1.00;;;;;;;;;;5006381;28;20061;-49
2022/10/23 01:39:45;;;;;;;2.80;1.23;;;;;;;;;;5011673;28;20077;-49
2022/10/23 01:42:14;;;;;;;3.47;1.20;;;;;;;;;;5007333;28;20049;-53
2022/10/23 01:44:48;;;;;;;1.80;1.02;;;;;;;;;;5007219;28;20049;-49
2022/10/23 01:47:16;;;;;;;2.38;1.15;;;;;;;;;;5007680;28;20120;-48
2022/10/23 01:49:42;;;;;;;4.18;1.20;;;;;;;;;;5015859;28;20096;-49
2022/10/23 01:52:11;;;;;;;2.97;1.13;;;;;;;;;;5001462;28;20514;-51
2022/10/23 01:54:39;;;;;;;2.30;1.10;;;;;;;;;;5009290;28;20088;-49
2022/10/23 01:57:07;;;;;;;3.33;1.20;;;;;;;;;;5013528;28;20044;-51
2022/10/23 01:59:37;;;;;;;3.20;1.38;;;;;;;;;;5014792;28;20107;-53
2022/10/23 02:02:03;;;;;;;2.42;0.90;;;;;;;;;;5015633;28;20042;-50
2022/10/23 02:04:54;;;;;;;2.55;1.10;;;;;;;;;;5014536;28;20089;-48
2022/10/23 02:07:20;;;;;;;3.33;1.20;;;;;;;;;;5007079;28;20060;-49
2022/10/23 02:09:45;;;;;;;2.38;1.10;;;;;;;;;;5015167;28;20034;-51
2022/10/23 02:12:18;;;;;;;2.33;1.17;;;;;;;;;;5015097;28;20088;-49
2022/10/23 02:15:05;;;;;;;2.05;1.10;;;;;;;;;;5012868;28;20042;-49
2022/10/23 02:17:57;;;;;;;1.83;1.00;;;;;;;;;;5004851;28;20040;-50
2022/10/23 02:20:25;;;;;;;3.03;1.15;;;;;;;;;;5011072;28;20430;-50
2022/10/23 02:22:57;;;;;;;3.65;1.25;;;;;;;;;;5011274;28;20045;-49
2022/10/23 02:25:31;;;;;;;2.28;1.10;;;;;;;;;;5013980;28;20407;-49
2022/10/23 02:27:59;;;;;;;3.10;1.20;;;;;;;;;;5008516;28;20049;-51
2022/10/23 02:30:26;;;;;;;2.58;1.10;;;;;;;;;;5001821;28;20105;-49
2022/10/23 02:32:53;;;;;;;2.67;1.30;;;;;;;;;;5001974;28;20037;-49
2022/10/23 02:35:21;;;;;;;2.20;1.20;;;;;;;;;;5012245;28;20041;-53
2022/10/23 02:37:58;;;;;;;2.10;1.00;;;;;;;;;;5011901;28;20042;-49
2022/10/23 02:40:36;;;;;;;1.90;0.98;;;;;;;;;;5002219;28;20458;-52
2022/10/23 02:43:21;;;;;;;2.60;1.00;;;;;;;;;;5013778;28;20045;-53
2022/10/23 02:46:00;;;;;;;2.30;1.10;;;;;;;;;;5000996;28;20076;-53
2022/10/23 02:48:35;;;;;;;2.78;1.00;;;;;;;;;;5014953;28;20037;-49
2022/10/23 02:51:03;;;;;;;2.00;1.02;;;;;;;;;;5014444;28;20052;-53
2022/10/23 02:53:38;;;;;;;1.70;0.90;;;;;;;;;;5014427;28;20402;-49
2022/10/23 02:56:09;;;;;;;2.38;1.00;;;;;;;;;;5014671;28;20041;-49
2022/10/23 02:58:53;;;;;;;2.15;1.10;;;;;;;;;;5012170;28;20049;-50
2022/10/23 03:01:25;;;;;;;2.92;1.30;;;;;;;;;;5001082;28;20386;-50
2022/10/23 03:03:58;;;;;;;2.78;1.10;;;;;;;;;;5007823;28;20049;-52
2022/10/23 03:06:24;;;;;;;2.13;1.00;;;;;;;;;;5008277;28;20042;-49
2022/10/23 03:09:09;;;;;;;1.90;1.10;;;;;;;;;;4994341;28;20109;-49
2022/10/23 03:11:34;;;;;;;2.13;0.90;;;;;;;;;;5040616;28;20049;-50
2022/10/23 03:14:00;;;;;;;1.75;0.88;;;;;;;;;;5005887;28;20038;-49
2022/10/23 03:16:26;;;;;;;2.28;1.00;;;;;;;;;;5014198;28;20057;-50
2022/10/23 03:18:51;;;;;;;2.28;1.00;;;;;;;;;;5014253;28;20148;-52
2022/10/23 03:21:17;;;;;;;1.90;1.02;;;;;;;;;;5011702;28;20496;-52
2022/10/23 03:23:42;;;;;;;1.88;0.90;;;;;;;;;;5014336;28;20076;-50
2022/10/23 03:26:07;;;;;;;1.58;0.80;;;;;;;;;;5013753;28;20034;-49
2022/10/23 03:28:34;;;;;;;1.63;0.90;;;;;;;;;;5014388;28;20034;-52
2022/10/23 03:31:01;;;;;;;1.88;1.10;;;;;;;;;;5013886;28;20125;-49
2022/10/23 03:33:27;;;;;;;1.67;0.80;;;;;;;;;;5012808;28;20119;-51
2022/10/23 03:35:52;;;;;;;2.47;1.00;;;;;;;;;;5012779;28;20072;-48
2022/10/23 03:38:18;;;;;;;2.08;1.05;;;;;;;;;;5014157;28;20038;-50
2022/10/23 03:40:43;;;;;;;1.83;0.82;;;;;;;;;;5014095;28;20046;-50
2022/10/23 03:43:09;;;;;;;1.90;0.93;;;;;;;;;;5000025;28;20040;-49
2022/10/23 03:45:37;;;;;;;2.25;0.95;;;;;;;;;;5013872;28;20504;-51
2022/10/23 03:48:06;;;;;;;2.05;0.90;;;;;;;;;;4998434;28;20127;-51
2022/10/23 03:50:32;;;;;;;1.67;0.90;;;;;;;;;;5000955;28;20061;-49
2022/10/23 03:52:57;;;;;;;2.72;0.98;;;;;;;;;;4996260;28;20038;-49
2022/10/23 03:55:24;;;;;;;1.52;0.80;;;;;;;;;;5004447;28;20049;-50
2022/10/23 03:57:49;;;;;;;2.03;0.98;;;;;;;;;;5013606;28;20042;-48
2022/10/23 04:00:15;;;;;;;3.38;1.02;;;;;;;;;;5013521;28;20389;-49
2022/10/23 04:02:40;;;;;;;2.35;1.05;;;;;;;;;;5013528;28;20046;-53
2022/10/23 04:05:06;;;;;;;3.38;1.10;;;;;;;;;;5001175;28;20045;-49
2022/10/23 04:07:31;;;;;;;1.92;1.00;;;;;;;;;;4997698;28;20054;-50
2022/10/23 04:09:57;;;;;;;2.00;0.90;;;;;;;;;;5013368;28;20073;-48
2022/10/23 04:12:22;;;;;;;2.22;1.00;;;;;;;;;;5013388;28;20037;-51
2022/10/23 04:14:48;;;;;;;1.92;0.90;;;;;;;;;;5012647;28;20070;-52
2022/10/23 04:17:13;;;;;;;2.28;0.93;;;;;;;;;;4996051;28;20042;-48
2022/10/23 04:19:38;;;;;;;2.65;0.95;;;;;;;;;;5000526;28;20132;-53
2022/10/23 04:22:04;;;;;;;1.70;0.82;;;;;;;;;;4996772;28;20026;-49
2022/10/23 04:24:29;;;;;;;1.60;0.80;;;;;;;;;;5007776;28;20038;-49
2022/10/23 04:26:54;;;;;;;2.45;1.02;;;;;;;;;;5013275;28;20045;-51
2022/10/23 04:29:23;;;;;;;1.83;0.95;;;;;;;;;;5013443;28;20026;-48
2022/10/23 04:31:49;;;;;;;2.38;1.02;;;;;;;;;;5013224;28;20038;-48
2022/10/23 04:34:14;;;;;;;2.40;0.90;;;;;;;;;;5013343;28;20508;-53
2022/10/23 04:36:39;;;;;;;1.33;0.75;;;;;;;;;;5012881;28;20397;-52
2022/10/23 04:39:05;;;;;;;1.70;0.80;;;;;;;;;;5013423;28;20041;-52
2022/10/23 04:41:31;;;;;;;1.42;1.02;;;;;;;;;;5013030;28;20060;-48
2022/10/23 04:43:57;;;;;;;2.17;1.10;;;;;;;;;;5011953;28;20435;-48
2022/10/23 04:46:22;;;;;;;1.42;0.80;;;;;;;;;;5003542;28;20125;-52
2022/10/23 04:48:47;;;;;;;2.67;1.02;;;;;;;;;;5009906;28;20371;-51
2022/10/23 04:51:13;;;;;;;2.45;1.00;;;;;;;;;;5013091;28;20026;-49
2022/10/23 04:53:38;;;;;;;2.90;0.88;;;;;;;;;;5007995;28;20479;-50
2022/10/23 04:56:04;;;;;;;2.60;1.02;;;;;;;;;;5002878;28;20044;-53
2022/10/23 04:58:30;;;;;;;2.45;1.10;;;;;;;;;;5008960;28;20073;-49
2022/10/23 05:00:56;;;;;;;1.48;0.80;;;;;;;;;;4999976;28;20070;-48
2022/10/23 05:03:22;;;;;;;1.77;0.80;;;;;;;;;;5019729;28;20116;-48
2022/10/23 05:05:47;;;;;;;2.03;0.88;;;;;;;;;;5008567;28;20383;-52
2022/10/23 05:08:13;;;;;;;2.20;0.90;;;;;;;;;;5011723;28;20049;-49
2022/10/23 05:10:40;;;;;;;1.92;0.90;;;;;;;;;;5013230;28;20081;-49
2022/10/23 05:13:06;;;;;;;2.03;0.90;;;;;;;;;;5013018;28;20145;-51
2022/10/23 05:15:31;;;;;;;1.77;0.90;;;;;;;;;;5011422;28;20497;-49
2022/10/23 05:18:24;;;;;;;2.40;1.00;;;;;;;;;;5012821;28;20049;-48
2022/10/23 05:20:52;;;;;;;1.60;0.90;;;;;;;;;;4999343;28;20486;-52
2022/10/23 05:23:20;;;;;;;1.55;0.85;;;;;;;;;;5007143;28;20486;-53
2022/10/23 05:25:45;;;;;;;2.05;1.08;;;;;;;;;;5017666;28;20049;-49
2022/10/23 05:28:11;;;;;;;2.08;0.90;;;;;;;;;;5008145;28;20463;-49
2022/10/23 05:30:36;;;;;;;1.83;0.90;;;;;;;;;;5010771;28;20047;-49
2022/10/23 05:33:02;;;;;;;1.88;0.93;;;;;;;;;;5011652;28;20034;-49
2022/10/23 05:35:28;;;;;;;1.85;0.95;;;;;;;;;;5009198;28;20046;-51
2022/10/23 05:37:54;;;;;;;1.63;0.90;;;;;;;;;;5016286;28;20052;-49
2022/10/23 05:40:20;;;;;;;1.98;1.00;;;;;;;;;;5014872;28;20385;-49
2022/10/23 05:42:45;;;;;;;1.50;0.90;;;;;;;;;;5015794;28;20044;-48
2022/10/23 05:45:11;;;;;;;1.90;1.10;;;;;;;;;;5016168;28;20132;-50
2022/10/23 05:47:36;;;;;;;1.98;0.90;;;;;;;;;;5015736;28;20040;-53
2022/10/23 05:50:02;;;;;;;1.58;0.85;;;;;;;;;;5016024;28;20044;-49
2022/10/23 05:52:27;;;;;;;1.85;0.90;;;;;;;;;;5015533;28;20092;-52
2022/10/23 05:54:53;;;;;;;1.73;0.77;;;;;;;;;;5015892;28;20038;-50
2022/10/23 05:57:18;;;;;;;1.75;0.80;;;;;;;;;;5015936;28;20515;-48
2022/10/23 05:59:43;;;;;;;1.63;0.90;;;;;;;;;;5008909;28;20045;-52
2022/10/23 06:02:09;;;;;;;1.50;0.85;;;;;;;;;;5001826;28;20459;-48
2022/10/23 06:04:34;;;;;;;2.33;1.00;;;;;;;;;;5002042;28;20393;-50
2022/10/23 06:07:01;;;;;;;1.73;0.85;;;;;;;;;;5001612;28;20046;-51
2022/10/23 06:09:26;;;;;;;1.52;0.80;;;;;;;;;;5014992;28;20026;-48
2022/10/23 06:11:51;;;;;;;2.25;0.93;;;;;;;;;;5002632;28;20490;-51
2022/10/23 06:14:17;;;;;;;1.10;0.70;;;;;;;;;;5005611;28;20041;-50
2022/10/23 06:16:42;;;;;;;1.48;0.73;;;;;;;;;;5015211;28;20037;-51
2022/10/23 06:19:11;;;;;;;1.73;0.82;;;;;;;;;;5015633;28;20042;-50
2022/10/23 06:21:37;;;;;;;1.73;0.90;;;;;;;;;;5014274;28;20048;-53
2022/10/23 06:24:04;;;;;;;1.70;0.63;;;;;;;;;;5006215;28;20072;-51
2022/10/23 06:26:29;;;;;;;1.45;0.68;;;;;;;;;;5015653;28;20042;-48
2022/10/23 06:28:55;;;;;;;1.02;0.70;;;;;;;;;;5003111;28;20051;-52
2022/10/23 06:31:25;;;;;;;2.28;1.23;;;;;;;;;;5008921;28;20030;-49
2022/10/23 06:33:51;;;;;;;1.70;0.75;;;;;;;;;;5011640;28;20456;-49
2022/10/23 06:36:16;;;;;;;0.82;0.60;;;;;;;;;;5009292;28;20065;-49
2022/10/23 06:38:41;;;;;;;1.05;0.70;;;;;;;;;;5014408;28;20038;-49
2022/10/23 06:41:12;;;;;;;1.45;0.73;;;;;;;;;;5015198;28;20037;-49
2022/10/23 06:43:37;;;;;;;1.70;0.80;;;;;;;;;;5013766;28;20038;-53
2022/10/23 06:46:03;;;;;;;1.52;0.82;;;;;;;;;;5014555;28;20033;-50
2022/10/23 06:48:29;;;;;;;1.17;0.70;;;;;;;;;;5014953;28;20041;-49
2022/10/23 06:50:55;;;;;;;1.63;0.80;;;;;;;;;;4999333;28;20042;-53
2022/10/23 06:53:23;;;;;;;2.47;0.90;;;;;;;;;;5008010;28;20056;-49
2022/10/23 06:55:49;;;;;;;1.50;0.80;;;;;;;;;;5001722;28;20508;-49
2022/10/23 06:58:14;;;;;;;1.40;0.70;;;;;;;;;;5004454;28;20041;-48
2022/10/23 07:00:40;;;;;;;2.50;0.80;;;;;;;;;;5009093;28;20033;-49
2022/10/23 07:03:07;;;;;;;1.70;0.90;;;;;;;;;;5012128;28;20124;-48
2022/10/23 07:05:33;;;;;;;1.55;0.82;;;;;;;;;;5014665;28;20045;-50
2022/10/23 07:07:58;;;;;;;1.10;0.70;;;;;;;;;;5011514;28;20061;-49
2022/10/23 07:10:23;;;;;;;1.80;0.77;;;;;;;;;;5013594;28;20040;-50
2022/10/23 07:12:49;;;;;;;2.63;0.80;;;;;;;;;;5011973;28;20046;-49
2022/10/23 07:15:15;;;;;;;1.33;0.70;;;;;;;;;;5010385;28;20030;-49
2022/10/23 07:17:40;;;;;;;1.75;0.80;;;;;;;;;;5005438;28;20409;-52
2022/10/23 07:20:06;;;;;;;1.45;0.85;;;;;;;;;;5008218;28;20096;-49
2022/10/23 07:22:31;;;;;;;1.50;0.65;;;;;;;;;;5012433;28;20468;-49
2022/10/23 07:24:57;;;;;;;1.85;0.80;;;;;;;;;;5014285;28;20052;-48
2022/10/23 07:27:22;;;;;;;1.10;0.70;;;;;;;;;;5013345;28;20129;-49
2022/10/23 07:29:52;;;;;;;1.75;0.75;;;;;;;;;;5012594;28;20030;-53
2022/10/23 07:32:17;;;;;;;2.45;0.80;;;;;;;;;;5012445;28;20409;-51
2022/10/23 07:34:43;;;;;;;2.53;0.70;;;;;;;;;;5034682;28;20042;-48
2022/10/23 07:37:08;;;;;;;1.35;0.73;;;;;;;;;;5019987;28;20061;-47
2022/10/23 07:39:34;;;;;;;2.63;0.70;;;;;;;;;;5012714;28;20044;-50
2022/10/23 07:41:59;;;;;;;2.30;0.82;;;;;;;;;;5008111;28;20114;-48
2022/10/23 07:44:25;;;;;;;1.30;0.65;;;;;;;;;;5008854;28;20137;-49
2022/10/23 07:46:50;;;;;;;1.17;0.70;;;;;;;;;;5006811;28;20034;-57
2022/10/23 07:49:15;;;;;;;1.00;0.60;;;;;;;;;;5023458;28;20037;-58
2022/10/23 07:51:41;;;;;;;1.95;0.88;;;;;;;;;;5013078;28;20397;-51
2022/10/23 07:54:08;;;;;;;1.52;0.63;;;;;;;;;;5009775;28;20107;-51
2022/10/23 07:56:34;;;;;;;2.20;0.77;;;;;;;;;;5012217;28;20482;-55
2022/10/23 07:58:59;;;;;;;2.10;0.80;;;;;;;;;;5013307;28;20160;-58
2022/10/23 08:01:36;;;;;;;4.20;1.00;;;;;;;;;;4999384;28;20038;-48
2022/10/23 08:04:02;;;;;;;1.88;0.80;;;;;;;;;;5001050;28;20042;-49
2022/10/23 08:06:27;;;;;;;4.15;0.82;;;;;;;;;;5002153;28;20057;-54
2022/10/23 08:08:53;;;;;;;1.80;0.80;;;;;;;;;;5013258;28;20509;-54
2022/10/23 08:11:24;;;;;;;1.33;0.73;;;;;;;;;;5009737;28;20042;-50
2022/10/23 08:13:55;;;;;;;2.35;0.80;;;;;;;;;;5009462;28;20088;-48
2022/10/23 08:16:22;;;;;;;2.72;0.80;;;;;;;;;;5004292;28;20034;-59
2022/10/23 08:18:48;;;;;;;1.50;0.65;;;;;;;;;;4997472;28;20439;-58
2022/10/23 08:21:15;;;;;;;5.13;0.75;;;;;;;;;;5011362;28;20033;-59
2022/10/23 08:23:40;;;;;;;0.75;0.60;;;;;;;;;;5010989;28;20045;-57
2022/10/23 08:26:07;;;;;;;0.95;0.60;;;;;;;;;;5014758;28;20538;-55
2022/10/23 08:28:33;;;;;;;4.20;0.77;;;;;;;;;;5013284;28;20076;-52
2022/10/23 08:31:15;;;;;;;2.55;0.80;;;;;;;;;;5013408;28;20397;-54
2022/10/23 08:33:40;;;;;;;2.17;0.80;;;;;;;;;;5000397;28;20477;-55
2022/10/23 08:36:23;;;;;;;1.42;0.60;;;;;;;;;;5013537;28;20048;-59
2022/10/23 08:38:49;;;;;;;3.15;0.60;;;;;;;;;;5013013;28;20067;-56
2022/10/23 08:41:22;;;;;;;1.20;0.70;;;;;;;;;;5011999;28;20046;-54
2022/10/23 08:43:52;;;;;;;1.63;0.70;;;;;;;;;;5013196;28;20033;-58
2022/10/23 08:46:18;;;;;;;4.38;0.90;;;;;;;;;;5006578;28;20038;-57
2022/10/23 08:48:49;;;;;;;1.33;0.73;;;;;;;;;;5004354;28;20132;-59
2022/10/23 08:51:22;;;;;;;1.23;0.90;;;;;;;;;;4996005;28;20105;-59
2022/10/23 08:54:10;;;;;;;3.70;0.70;;;;;;;;;;5006698;28;20045;-59
2022/10/23 08:56:38;;;;;;;3.50;1.42;;;;;;;;;;5008458;28;20041;-59
2022/10/23 08:59:21;;;;;;;2.78;1.05;;;;;;;;;;5032427;28;20053;-59
2022/10/23 09:01:48;;;;;;;1.88;0.95;;;;;;;;;;5015787;28;20037;-59
2022/10/23 09:04:14;;;;;;;4.80;1.27;;;;;;;;;;5000114;28;20265;-59
2022/10/23 09:06:47;;;;;;;1.52;0.80;;;;;;;;;;5017856;28;20489;-58
2022/10/23 09:09:34;;;;;;;6.95;0.90;;;;;;;;;;5015217;28;20040;-58
2022/10/23 09:12:08;;;;;;;2.03;0.93;;;;;;;;;;5034196;28;20057;-58
2022/10/23 09:14:58;;;;;;;3.55;1.08;;;;;;;;;;5012292;28;20117;-59
2022/10/23 09:17:34;;;;;;;6.53;1.30;;;;;;;;;;5010404;28;20034;-61
2022/10/23 09:20:19;;;;;;;7.53;1.00;;;;;;;;;;5035414;28;20040;-65
2022/10/23 09:22:47;;;;;;;6.10;1.10;;;;;;;;;;5020056;28;20038;-60
2022/10/23 09:25:19;;;;;;;2.85;1.00;;;;;;;;;;5013229;28;20038;-57
2022/10/23 09:27:49;;;;;;;4.63;1.00;;;;;;;;;;5015745;28;20440;-58
2022/10/23 09:30:31;;;;;;;3.25;0.90;;;;;;;;;;5017764;28;20065;-53
2022/10/23 09:32:58;;;;;;;4.32;0.88;;;;;;;;;;5013975;28;20042;-55
2022/10/23 09:35:27;;;;;;;3.00;0.90;;;;;;;;;;5014014;28;20061;-57
2022/10/23 09:37:52;;;;;;;1.70;0.80;;;;;;;;;;4986672;28;20496;-59
2022/10/23 09:40:29;;;;;;;1.83;0.82;;;;;;;;;;5014076;28;20042;-58
2022/10/23 09:42:59;;;;;;;2.45;0.80;;;;;;;;;;5011041;28;20053;-58
2022/10/23 09:45:30;;;;;;;4.85;1.10;;;;;;;;;;5010327;28;20030;-63
2022/10/23 09:48:16;;;;;;;1.77;0.70;;;;;;;;;;5015650;28;20038;-58
2022/10/23 09:50:56;;;;;;;3.38;0.90;;;;;;;;;;5012112;28;20042;-58
2022/10/23 09:53:38;;;;;;;3.40;0.95;;;;;;;;;;5018707;28;20046;-58
2022/10/23 09:56:10;;;;;;;2.45;0.98;;;;;;;;;;5022901;28;20037;-59
2022/10/23 09:58:39;;;;;;;5.80;0.88;;;;;;;;;;5009642;28;20176;-58
2022/10/23 10:01:04;;;;;;;6.90;0.90;;;;;;;;;;5022906;28;20081;-59
2022/10/23 10:03:30;;;;;;;3.95;0.90;;;;;;;;;;5017765;28;20093;-58
2022/10/23 10:06:01;;;;;;;4.63;1.05;;;;;;;;;;5011997;28;20053;-59
2022/10/23 10:08:34;;;;;;;3.85;0.90;;;;;;;;;;5014250;28;20049;-57
2022/10/23 10:11:05;;;;;;;3.55;0.60;;;;;;;;;;5014440;28;20048;-58
2022/10/23 10:13:36;;;;;;;3.10;1.00;;;;;;;;;;5015367;28;20060;-58
2022/10/23 10:16:13;;;;;;;3.33;0.82;;;;;;;;;;5002978;28;20551;-59
2022/10/23 10:18:41;;;;;;;2.03;0.70;;;;;;;;;;5000441;28;20033;-59
2022/10/23 10:21:14;;;;;;;3.55;1.00;;;;;;;;;;5015592;28;20172;-58
2022/10/23 10:23:47;;;;;;;2.00;0.90;;;;;;;;;;5015239;28;20030;-59
2022/10/23 10:26:24;;;;;;;2.35;0.82;;;;;;;;;;5014133;28;20053;-59
2022/10/23 10:29:08;;;;;;;3.75;0.82;;;;;;;;;;5015472;28;20531;-57
2022/10/23 10:31:58;;;;;;;2.70;0.80;;;;;;;;;;5015059;28;20060;-58
2022/10/23 10:34:43;;;;;;;3.55;0.88;;;;;;;;;;5015026;28;20061;-58
2022/10/23 10:37:09;;;;;;;1.60;0.80;;;;;;;;;;5012835;28;20039;-58
2022/10/23 10:39:38;;;;;;;5.40;0.98;;;;;;;;;;5015026;28;20037;-58
2022/10/23 10:42:22;;;;;;;3.97;0.85;;;;;;;;;;5013931;28;20033;-59
2022/10/23 10:45:06;;;;;;;1.55;0.77;;;;;;;;;;5009520;28;20034;-58
2022/10/23 10:47:37;;;;;;;2.50;0.90;;;;;;;;;;5005516;28;20096;-58
2022/10/23 10:50:06;;;;;;;2.47;0.80;;;;;;;;;;4998098;28;20050;-58
2022/10/23 10:52:40;;;;;;;1.40;0.70;;;;;;;;;;5008397;28;20126;-57
2022/10/23 10:55:35;;;;;;;0.77;0.50;;;;;;;;;;5014879;28;20041;-58
2022/10/23 10:58:16;;;;;;;2.10;0.52;;;;;;;;;;5004006;28;20058;-58
2022/10/23 11:00:42;;;;;;;1.33;0.57;;;;;;;;;;5013206;28;20072;-59
2022/10/23 11:03:35;;;;;;;3.33;0.90;;;;;;;;;;4997349;28;20379;-56
2022/10/23 11:06:02;;;;;;;1.33;0.70;;;;;;;;;;5002450;28;20034;-58
2022/10/23 11:08:37;;;;;;;1.13;0.68;;;;;;;;;;5010643;28;20049;-58
2022/10/23 11:11:10;;;;;;;1.88;0.80;;;;;;;;;;4998135;28;20100;-58
2022/10/23 11:13:36;;;;;;;;;;;;;;;;;;5023712;28;20128;-58
2022/10/23 11:16:22;;;;;;;0.98;0.60;;;;;;;;;;5017892;28;20407;-57
2022/10/23 11:18:59;;;;;;;2.35;0.80;;;;;;;;;;5018532;28;20042;-58
2022/10/23 11:21:52;;;;;;;3.15;0.80;;;;;;;;;;5013632;28;20041;-58
2022/10/23 11:24:42;;;;;;;1.50;0.70;;;;;;;;;;5012598;28;20071;-58
2022/10/23 11:27:36;;;;;;;3.10;0.70;;;;;;;;;;5015159;28;20397;-57
2022/10/23 11:30:23;;;;;;;3.25;0.65;;;;;;;;;;5016048;28;20034;-60
2022/10/23 11:33:07;;;;;;;8.73;1.00;;;;;;;;;;5019405;28;20372;-60
2022/10/23 11:35:43;;;;;;;1.85;0.65;;;;;;;;;;5019205;28;20034;-59
2022/10/23 11:38:11;;;;;;;3.50;0.85;;;;;;;;;;5010646;28;20045;-59
2022/10/23 11:40:43;;;;;;;2.33;0.82;;;;;;;;;;5016632;28;20049;-57
2022/10/23 11:43:08;;;;;;;9.75;0.75;;;;;;;;;;5013286;28;20385;-61
2022/10/23 11:45:38;;;;;;;2.10;0.70;;;;;;;;;;5015903;28;20046;-58
2022/10/23 11:48:14;;;;;;;2.63;0.57;;;;;;;;;;5023313;28;20481;-61
2022/10/23 11:50:42;;;;;;;7.47;1.00;;;;;;;;;;5012742;28;20056;-59
2022/10/23 11:53:27;;;;;;;3.17;0.75;;;;;;;;;;5012538;28;20497;-59
2022/10/23 11:56:18;;;;;;;2.10;0.70;;;;;;;;;;5012445;28;20464;-59
2022/10/23 11:58:55;;;;;;;1.23;0.60;;;;;;;;;;5009751;28;20073;-60
2022/10/23 12:01:24;;;;;;;1.50;0.60;;;;;;;;;;5026538;28;20038;-58
2022/10/23 12:04:11;;;;;;;2.47;0.98;;;;;;;;;;4987454;28;20054;-60
2022/10/23 12:06:42;;;;;;;1.25;0.70;;;;;;;;;;5013756;28;20097;-60
2022/10/23 12:09:36;;;;;;;2.92;0.80;;;;;;;;;;5011466;28;20084;-59
2022/10/23 12:12:07;;;;;;;1.40;0.80;;;;;;;;;;5003169;28;20037;-59
2022/10/23 12:14:36;;;;;;;2.08;0.75;;;;;;;;;;5008561;28;20080;-70
2022/10/23 12:17:01;;;;;;;4.47;1.05;;;;;;;;;;5001124;28;20156;-58
2022/10/23 12:19:29;;;;;;;1.98;0.80;;;;;;;;;;5027663;28;20112;-57
2022/10/23 12:22:00;;;;;;;1.65;0.70;;;;;;;;;;5016868;28;20042;-59
2022/10/23 12:24:38;;;;;;;3.55;0.80;;;;;;;;;;5000237;28;20113;-62
2022/10/23 12:27:06;;;;;;;10.52;0.70;;;;;;;;;;5003669;28;20054;-58
2022/10/23 12:29:41;;;;;;;1.40;0.73;;;;;;;;;;5014916;28;20038;-60
2022/10/23 12:32:20;;;;;;;1.45;0.57;;;;;;;;;;5017819;28;20164;-58
2022/10/23 12:34:58;;;;;;;2.80;0.80;;;;;;;;;;5038907;28;20119;-59
2022/10/23 12:37:38;;;;;;;6.65;0.90;;;;;;;;;;5001062;28;20120;-59
2022/10/23 12:40:08;;;;;;;2.10;0.68;;;;;;;;;;5011926;28;20034;-59
2022/10/23 12:42:34;;;;;;;4.50;0.77;;;;;;;;;;5006118;28;20101;-59
2022/10/23 12:45:01;;;;;;;3.80;1.15;;;;;;;;;;5019745;28;20063;-64
2022/10/23 12:47:28;;;;;;;1.05;0.60;;;;;;;;;;5019235;28;20124;-67
2022/10/23 12:49:53;;;;;;;3.25;0.80;;;;;;;;;;5019019;28;20079;-59
2022/10/23 12:52:20;;;;;;;1.70;0.70;;;;;;;;;;5020739;28;20045;-59
2022/10/23 12:54:46;;;;;;;6.88;0.80;;;;;;;;;;5025126;28;20104;-59
2022/10/23 12:57:26;;;;;;;2.03;0.70;;;;;;;;;;4993700;28;20073;-59
2022/10/23 13:00:03;;;;;;;2.47;0.70;;;;;;;;;;5007615;28;20069;-58
2022/10/23 13:02:30;;;;;;;3.55;0.70;;;;;;;;;;5038733;28;20048;-59
2022/10/23 13:04:58;;;;;;;2.25;0.85;;;;;;;;;;4997296;28;20034;-59
2022/10/23 13:07:29;;;;;;;1.70;0.70;;;;;;;;;;5000957;28;20046;-59
2022/10/23 13:09:55;;;;;;;2.25;0.88;;;;;;;;;;5001599;28;20508;-59
2022/10/23 13:12:26;;;;;;;4.03;0.75;;;;;;;;;;5018709;28;20026;-61
2022/10/23 13:15:02;;;;;;;3.05;0.80;;;;;;;;;;5021306;28;20042;-59
2022/10/23 13:17:42;;;;;;;6.03;1.00;;;;;;;;;;5012228;28;20042;-62
2022/10/23 13:20:16;;;;;;;2.72;1.15;;;;;;;;;;5018017;28;20825;-60
2022/10/23 13:22:43;;;;;;;2.40;0.63;;;;;;;;;;5025071;28;20049;-61
2022/10/23 13:25:31;;;;;;;2.75;0.60;;;;;;;;;;5035267;28;20037;-62
2022/10/23 13:28:20;;;;;;;6.10;0.80;;;;;;;;;;5041165;28;20049;-63
2022/10/23 13:30:57;;;;;;;3.80;0.80;;;;;;;;;;5013346;28;20042;-63
2022/10/23 13:33:24;;;;;;;4.70;0.80;;;;;;;;;;5006981;28;20088;-62
2022/10/23 13:36:17;;;;;;;2.90;0.90;;;;;;;;;;5011494;28;20045;-61
2022/10/23 13:39:01;;;;;;;5.10;0.70;;;;;;;;;;5021006;28;20050;-60
2022/10/23 13:41:32;;;;;;;6.97;0.93;;;;;;;;;;5015779;28;20930;-59
2022/10/23 13:43:58;;;;;;;1.35;0.57;;;;;;;;;;5010946;28;20099;-58
2022/10/23 13:46:26;;;;;;;4.95;0.73;;;;;;;;;;5023718;28;20038;-60
2022/10/23 13:48:52;;;;;;;2.50;0.80;;;;;;;;;;5012206;28;20128;-58
2022/10/23 13:51:18;;;;;;;2.90;0.60;;;;;;;;;;5015992;28;20113;-59
2022/10/23 13:53:44;;;;;;;2.03;0.70;;;;;;;;;;5016603;28;20097;-58
2022/10/23 13:56:11;;;;;;;3.83;0.90;;;;;;;;;;5013992;28;20422;-58
2022/10/23 13:58:37;;;;;;;2.00;0.68;;;;;;;;;;5012886;28;20046;-58
2022/10/23 14:01:03;;;;;;;3.10;0.90;;;;;;;;;;5026183;28;20045;-58
2022/10/23 14:03:28;;;;;;;3.65;0.73;;;;;;;;;;5022925;28;20029;-59
2022/10/23 14:05:54;;;;;;;3.08;0.65;;;;;;;;;;4994288;28;20041;-59
2022/10/23 14:08:19;;;;;;;2.85;0.60;;;;;;;;;;4996236;28;20054;-59
2022/10/23 14:10:45;;;;;;;1.50;0.60;;;;;;;;;;5002527;28;20121;-61
2022/10/23 14:13:10;;;;;;;5.63;0.82;;;;;;;;;;4993808;28;20034;-59
2022/10/23 14:15:36;;;;;;;5.35;0.85;;;;;;;;;;5005380;28;20396;-58
2022/10/23 14:18:02;;;;;;;5.10;0.70;;;;;;;;;;4998387;28;20042;-62
2022/10/23 14:20:27;;;;;;;4.78;0.88;;;;;;;;;;5007063;28;20088;-59
2022/10/23 14:22:53;;;;;;;5.95;0.88;;;;;;;;;;4987054;28;20301;-59
2022/10/23 14:25:18;;;;;;;1.75;0.70;;;;;;;;;;5007870;28;20633;-61
2022/10/23 14:27:44;;;;;;;1.90;0.70;;;;;;;;;;5013819;28;20038;-58
2022/10/23 14:30:10;;;;;;;1.65;0.50;;;;;;;;;;5002940;28;20030;-59
2022/10/23 14:32:35;;;;;;;6.78;0.90;;;;;;;;;;5028566;28;20173;-59
2022/10/23 14:35:02;;;;;;;4.95;0.70;;;;;;;;;;5018558;28;20045;-59
2022/10/23 14:37:32;;;;;;;3.22;0.90;;;;;;;;;;5017568;28;20034;-59
2022/10/23 14:39:58;;;;;;;2.05;0.60;;;;;;;;;;5018145;28;20025;-59
2022/10/23 14:42:24;;;;;;;1.63;0.57;;;;;;;;;;5009068;28;20120;-59
2022/10/23 14:44:49;;;;;;;3.30;0.65;;;;;;;;;;5010144;28;20370;-59
2022/10/23 14:47:15;;;;;;;4.68;0.95;;;;;;;;;;5020485;28;20168;-60
2022/10/23 14:49:42;;;;;;;2.15;0.85;;;;;;;;;;5010472;28;20393;-61
2022/10/23 14:52:07;;;;;;;2.15;0.60;;;;;;;;;;5042395;28;20046;-63
2022/10/23 14:54:35;;;;;;;1.70;0.70;;;;;;;;;;5011651;28;20078;-58
2022/10/23 14:57:01;;;;;;;2.15;0.60;;;;;;;;;;5004312;28;20394;-61
2022/10/23 14:59:26;;;;;;;4.78;0.82;;;;;;;;;;5012611;28;20038;-58
2022/10/23 15:01:51;;;;;;;2.92;0.70;;;;;;;;;;5010429;28;20049;-59